Time;durP1;ratioP1;P1;durP2;ratioP2;P2;SDS_P1;SDS_P2;PMS_P1;PMS_P2;Temp;Humidity;BMP_temperature;BMP_pressure;BME280_temperature;BME280_humidity;BME280_pressure;Samples;Min_cycle;Max_cycle;Signal;HPM_P1;HPM_P2
2021/06/06 00:02:45;;;;;;;8.88;8.38;;;;;;;18.24;78.86;100357.56;10544134;28;20089;-73
2021/06/06 00:07:47;;;;;;;9.07;8.57;;;;;;;18.19;78.95;100354.28;10544843;28;20131;-75
2021/06/06 00:12:49;;;;;;;10.00;9.27;;;;;;;18.00;80.12;100367.81;10543914;28;20105;-73
2021/06/06 00:17:51;;;;;;;11.43;10.80;;;;;;;17.72;81.60;100360.50;10544369;28;20460;-72
2021/06/06 00:22:54;;;;;;;8.98;8.57;;;;;;;17.62;82.18;100370.81;10545284;28;20120;-74
2021/06/06 00:27:56;;;;;;;10.43;9.93;;;;;;;17.97;81.07;100378.59;10543925;28;20047;-73
2021/06/06 00:32:58;;;;;;;9.52;8.93;;;;;;;18.12;79.41;100392.88;10544508;28;20432;-73
2021/06/06 00:38:00;;;;;;;10.07;9.50;;;;;;;17.77;80.54;100386.88;10543702;28;20040;-73
2021/06/06 00:43:06;;;;;;;10.70;10.13;;;;;;;17.52;82.47;100377.56;10525694;28;20078;-72
2021/06/06 00:48:14;;;;;;;9.85;9.35;;;;;;;17.49;82.35;100382.22;10540919;28;20039;-73
2021/06/06 00:53:38;;;;;;;10.18;9.57;;;;;;;17.76;80.97;100386.03;10523565;28;20076;-72
2021/06/06 00:58:46;;;;;;;9.57;8.98;;;;;;;17.69;80.39;100383.75;10540541;28;20040;-72
2021/06/06 01:03:54;;;;;;;8.75;8.25;;;;;;;17.73;80.43;100386.16;10540843;28;20062;-72
2021/06/06 01:08:59;;;;;;;8.73;8.23;;;;;;;17.45;81.39;100386.81;10521862;28;20139;-71
2021/06/06 01:14:11;;;;;;;10.55;9.85;;;;;;;17.29;82.50;100385.94;10540899;28;20044;-72
2021/06/06 01:19:32;;;;;;;8.98;8.48;;;;;;;17.22;82.20;100377.44;10522169;28;20113;-72
2021/06/06 01:24:41;;;;;;;8.63;8.10;;;;;;;17.36;81.51;100379.34;10522753;28;20046;-72
2021/06/06 01:29:56;;;;;;;9.10;8.40;;;;;;;17.55;80.22;100385.38;10522005;28;20172;-72
2021/06/06 01:35:09;;;;;;;8.93;8.52;;;;;;;17.61;79.55;100384.16;10541166;28;20511;-72
2021/06/06 01:40:17;;;;;;;10.95;10.25;;;;;;;17.43;80.57;100393.16;10522407;28;20048;-71
2021/06/06 01:45:43;;;;;;;10.35;9.85;;;;;;;17.42;80.71;100389.63;10523664;28;20119;-71
2021/06/06 01:51:09;;;;;;;9.82;9.20;;;;;;;17.53;80.25;100389.94;10540848;28;20046;-72
2021/06/06 01:56:16;;;;;;;11.30;10.55;;;;;;;17.58;79.45;100387.00;10540347;28;20115;-72
2021/06/06 02:01:25;;;;;;;11.88;11.27;;;;;;;17.57;79.94;100393.25;10512072;28;20070;-72
2021/06/06 02:06:36;;;;;;;;;;;;;;;17.62;79.92;100391.22;10531066;28;20051;-71
2021/06/06 02:11:46;;;;;;;14.65;13.73;;;;;;;17.54;80.34;100388.13;10530273;28;19926;-71
2021/06/06 02:16:54;;;;;;;13.45;12.75;;;;;;;17.64;80.33;100391.97;10530604;28;20047;-71
2021/06/06 02:22:16;;;;;;;14.13;13.33;;;;;;;17.49;81.24;100393.69;10529784;28;20521;-72
2021/06/06 02:27:36;;;;;;;15.68;14.77;;;;;;;17.47;81.47;100392.03;10548342;28;20048;-72
2021/06/06 02:33:12;;;;;;;16.50;15.60;;;;;;;17.47;81.89;100394.69;10530240;28;20051;-72
2021/06/06 02:38:26;;;;;;;15.38;14.57;;;;;;;17.42;82.08;100389.63;10559335;22;20093;-69
2021/06/06 02:43:48;;;;;;;17.00;16.10;;;;;;;17.43;81.69;100391.34;10527949;28;20503;-69
2021/06/06 02:48:58;;;;;;;19.23;18.08;;;;;;;17.37;82.07;100392.56;10527339;28;20047;-69
2021/06/06 02:54:18;;;;;;;16.83;15.80;;;;;;;17.29;82.62;100397.41;10527478;28;20468;-69
2021/06/06 02:59:31;;;;;;;17.80;16.80;;;;;;;17.32;82.21;100389.28;10546470;28;20048;-69
2021/06/06 03:04:36;;;;;;;17.30;16.40;;;;;;;17.55;80.83;100392.50;10527077;28;20560;-69
2021/06/06 03:09:42;;;;;;;18.58;17.42;;;;;;;17.78;79.42;100389.44;10527278;28;20126;-69
2021/06/06 03:14:48;;;;;;;19.90;18.80;;;;;;;17.82;79.24;100398.09;10542952;28;20123;-69
2021/06/06 03:20:07;;;;;;;19.08;17.73;;;;;;;17.54;80.15;100394.28;10544611;28;20032;-69
2021/06/06 03:25:29;;;;;;;16.92;16.02;;;;;;;17.44;81.05;100397.53;10525690;28;20052;-69
2021/06/06 03:30:49;;;;;;;19.88;18.77;;;;;;;17.59;80.22;100389.56;10525101;28;20131;-69
2021/06/06 03:36:01;;;;;;;19.35;18.25;;;;;;;17.40;81.69;100388.88;10511166;28;20401;-69
2021/06/06 03:41:04;;;;;;;21.45;20.27;;;;;;;17.31;81.85;100394.66;10524635;28;20052;-69
2021/06/06 03:46:11;;;;;;;18.00;16.90;;;;;;;17.33;81.79;100395.47;10524276;28;20040;-69
2021/06/06 03:51:14;;;;;;;18.13;17.10;;;;;;;17.44;81.82;100397.53;10524709;28;20559;-69
2021/06/06 03:56:17;;;;;;;20.85;19.75;;;;;;;17.43;81.08;100390.50;10543161;28;20490;-69
2021/06/06 04:01:19;;;;;;;15.50;14.68;;;;;;;17.56;80.80;100389.75;10542338;28;20044;-69
2021/06/06 04:06:23;;;;;;;16.98;16.00;;;;;;;17.97;78.80;100380.41;10541501;28;20060;-69
2021/06/06 04:11:28;;;;;;;18.55;17.58;;;;;;;18.07;78.80;100379.81;10523618;28;20074;-69
2021/06/06 04:16:38;;;;;;;19.35;18.00;;;;;;;17.77;78.97;100382.41;10524580;28;20202;-69
2021/06/06 04:21:45;;;;;;;;;;;;;;;17.75;79.88;100386.09;10541776;28;20044;-70
2021/06/06 04:26:48;;;;;;;16.27;15.43;;;;;;;17.94;79.33;100391.25;10505865;28;20403;-69
2021/06/06 04:31:53;;;;;;;18.30;17.23;;;;;;;18.10;78.87;100392.06;10523288;28;20048;-70
2021/06/06 04:36:57;;;;;;;16.55;15.63;;;;;;;18.53;77.08;100389.59;10540561;28;20569;-70
2021/06/06 04:42:04;;;;;;;16.90;16.02;;;;;;;18.32;77.93;100387.22;10522601;28;20067;-69
2021/06/06 04:47:10;;;;;;;18.05;16.95;;;;;;;18.43;77.64;100397.25;10541265;28;20449;-69
2021/06/06 04:52:17;;;;;;;16.27;15.38;;;;;;;19.15;75.27;100395.63;10522442;28;20119;-70
2021/06/06 04:57:23;;;;;;;13.38;12.48;;;;;;;19.15;76.39;100393.81;10522120;28;20040;-70
2021/06/06 05:02:25;;;;;;;14.73;13.82;;;;;;;19.59;73.70;100386.66;10521146;28;20044;-69
2021/06/06 05:07:32;;;;;;;13.90;13.05;;;;;;;19.66;73.84;100377.34;10522466;28;20489;-70
2021/06/06 05:12:34;;;;;;;13.90;13.10;;;;;;;19.56;74.10;100378.84;10522201;28;20040;-70
2021/06/06 05:17:36;;;;;;;14.82;14.02;;;;;;;19.48;74.55;100378.47;10541435;28;20117;-70
2021/06/06 05:22:41;;;;;;;14.40;13.50;;;;;;;19.51;73.39;100388.94;10539260;28;20493;-71
2021/06/06 05:27:46;;;;;;;13.13;12.32;;;;;;;20.16;71.95;100391.88;10505329;28;20048;-70
2021/06/06 05:32:50;;;;;;;12.10;11.40;;;;;;;20.77;69.72;100392.28;10538555;28;20473;-70
2021/06/06 05:37:52;;;;;;;11.05;10.52;;;;;;;20.89;69.26;100396.75;10546628;28;20047;-70
2021/06/06 05:42:54;;;;;;;11.07;10.38;;;;;;;21.48;67.36;100393.59;10529496;28;20039;-70
2021/06/06 05:47:56;;;;;;;10.50;9.85;;;;;;;21.32;67.81;100394.66;10548705;28;20051;-70
2021/06/06 05:52:58;;;;;;;9.95;9.35;;;;;;;21.62;65.26;100391.63;10547355;28;20424;-69
2021/06/06 05:58:00;;;;;;;8.50;7.97;;;;;;;21.79;66.16;100402.94;10547491;28;20493;-69
2021/06/06 06:03:04;;;;;;;5.72;5.43;;;;;;;22.18;64.39;100399.19;10528417;28;20044;-69
2021/06/06 06:08:16;;;;;;;5.95;5.15;;;;;;;22.44;62.88;100393.69;10545980;28;20071;-70
2021/06/06 06:13:20;;;;;;;5.22;4.93;;;;;;;22.27;62.09;100394.94;10546509;28;20083;-70
2021/06/06 06:18:24;;;;;;;6.43;6.07;;;;;;;21.13;65.15;100404.91;10545621;28;20070;-71
2021/06/06 06:23:27;;;;;;;6.90;6.50;;;;;;;21.28;64.61;100400.31;10545512;28;20044;-70
2021/06/06 06:28:29;;;;;;;8.68;8.10;;;;;;;20.91;66.20;100401.06;10544644;28;20047;-70
2021/06/06 06:33:44;;;;;;;8.60;7.90;;;;;;;20.84;65.69;100406.91;10544791;28;20488;-71
2021/06/06 06:38:47;;;;;;;8.93;8.43;;;;;;;20.94;65.92;100401.78;10546023;28;20495;-70
2021/06/06 06:43:49;;;;;;;9.63;9.10;;;;;;;20.56;67.23;100407.94;10542329;28;20040;-70
2021/06/06 06:48:53;;;;;;;9.85;9.35;;;;;;;20.44;67.83;100409.59;10540839;28;20048;-70
2021/06/06 06:53:55;;;;;;;10.02;9.52;;;;;;;20.68;67.19;100404.44;10542708;28;20051;-70
2021/06/06 06:58:57;;;;;;;10.27;9.77;;;;;;;20.56;67.97;100405.28;10543461;28;20064;-71
2021/06/06 07:03:59;;;;;;;10.07;9.57;;;;;;;21.15;66.58;100411.84;10541956;28;20054;-70
2021/06/06 07:09:01;;;;;;;10.43;9.82;;;;;;;21.84;65.21;100411.47;10523262;28;20051;-71
2021/06/06 07:14:03;;;;;;;12.05;11.38;;;;;;;21.69;63.03;100415.25;10540249;28;20040;-70
2021/06/06 07:19:06;;;;;;;11.63;11.02;;;;;;;21.60;64.44;100425.66;10542745;28;20482;-70
2021/06/06 07:24:08;;;;;;;11.02;10.43;;;;;;;21.51;64.54;100420.94;10543156;28;20036;-70
2021/06/06 07:29:13;;;;;;;10.57;9.98;;;;;;;21.72;63.77;100417.72;10542499;28;20062;-70
2021/06/06 07:34:16;;;;;;;11.10;10.48;;;;;;;22.10;62.24;100417.59;10542481;28;20035;-70
2021/06/06 07:39:18;;;;;;;11.32;10.65;;;;;;;21.91;63.29;100418.06;10521019;28;66136;-69
2021/06/06 07:44:21;;;;;;;12.75;12.07;;;;;;;22.11;60.97;100405.91;10523729;28;20044;-70
2021/06/06 07:49:23;;;;;;;12.02;11.32;;;;;;;21.73;62.61;100409.56;10524589;28;20040;-70
2021/06/06 07:54:25;;;;;;;12.23;11.52;;;;;;;22.10;63.51;100409.56;10542115;28;20107;-70
2021/06/06 07:59:27;;;;;;;10.85;10.30;;;;;;;22.49;60.38;100408.47;10542416;28;20409;-70
2021/06/06 08:04:31;;;;;;;11.35;10.70;;;;;;;23.12;61.04;100401.81;10542004;28;20040;-69
2021/06/06 08:09:32;;;;;;;11.27;10.57;;;;;;;23.28;57.40;100395.22;10541226;28;20052;-70
2021/06/06 08:14:34;;;;;;;11.23;10.55;;;;;;;23.22;58.19;100398.41;10523718;28;20051;-68
2021/06/06 08:19:35;;;;;;;10.77;10.18;;;;;;;22.91;58.04;100390.94;10541206;28;20109;-69
2021/06/06 08:24:37;;;;;;;11.38;10.68;;;;;;;23.25;57.65;100395.50;10541786;28;20520;-69
2021/06/06 08:29:41;;;;;;;10.15;9.55;;;;;;;23.91;56.98;100399.13;10523088;28;20059;-69
2021/06/06 08:34:42;;;;;;;10.00;9.38;;;;;;;24.13;55.55;100392.84;10523262;28;20040;-69
2021/06/06 08:39:44;;;;;;;8.65;8.23;;;;;;;24.71;54.69;100393.38;10554078;22;20051;-75
2021/06/06 08:45:25;;;;;;;9.10;8.60;;;;;;;25.06;52.59;100387.66;10525795;28;20044;-73
2021/06/06 08:50:43;;;;;;;8.95;8.45;;;;;;;24.83;53.24;100383.38;10525595;28;20528;-73
2021/06/06 08:56:04;;;;;;;9.52;8.95;;;;;;;25.69;50.63;100381.28;10543320;28;20473;-73
2021/06/06 09:01:15;;;;;;;7.93;7.43;;;;;;;26.20;49.73;100380.25;10542705;28;20481;-74
2021/06/06 09:06:29;;;;;;;7.35;6.80;;;;;;;26.78;50.49;100366.75;10541745;28;20067;-74
2021/06/06 09:11:32;;;;;;;8.25;7.82;;;;;;;26.85;47.84;100371.44;10541243;28;20487;-73
2021/06/06 09:17:09;;;;;;;7.63;7.05;;;;;;;26.72;49.59;100372.75;10524244;28;20463;-74
2021/06/06 09:22:15;;;;;;;7.80;7.30;;;;;;;26.46;48.68;100367.94;10519426;28;20067;-74
2021/06/06 09:27:26;;;;;;;6.32;5.93;;;;;;;26.97;43.76;100364.03;10507487;28;20048;-74
2021/06/06 09:32:28;;;;;;;6.50;5.93;;;;;;;27.15;46.47;100362.31;10523903;28;20056;-73
2021/06/06 09:37:35;;;;;;;6.05;5.65;;;;;;;27.05;45.85;100349.78;10523516;28;20063;-73
2021/06/06 09:42:44;;;;;;;6.72;6.22;;;;;;;27.41;45.76;100358.94;10540884;28;20059;-74
2021/06/06 09:48:04;;;;;;;5.25;4.85;;;;;;;27.45;43.32;100354.06;10522067;28;20070;-75
2021/06/06 09:53:30;;;;;;;5.20;4.80;;;;;;;27.25;43.32;100364.97;10521455;28;20084;-75
2021/06/06 09:58:37;;;;;;;5.18;4.88;;;;;;;27.33;43.48;100348.88;10524284;28;20490;-74
2021/06/06 10:03:55;;;;;;;4.50;4.15;;;;;;;26.92;42.53;100356.38;10523464;28;20397;-74
2021/06/06 10:09:19;;;;;;;5.32;4.93;;;;;;;26.05;44.54;100352.88;10523722;28;20052;-74
2021/06/06 10:14:29;;;;;;;3.95;3.55;;;;;;;25.54;43.85;100343.94;10543839;28;20412;-75
2021/06/06 10:19:43;;;;;;;4.93;4.47;;;;;;;25.22;45.33;100354.03;10542310;28;20429;-74
2021/06/06 10:24:54;;;;;;;4.60;4.30;;;;;;;25.27;44.82;100360.72;10551262;28;20051;-76
2021/06/06 10:30:09;;;;;;;4.72;4.32;;;;;;;25.49;45.00;100356.13;10532600;28;20044;-73
2021/06/06 10:35:16;;;;;;;4.22;3.97;;;;;;;26.33;42.50;100348.47;10519128;28;20457;-75
2021/06/06 10:40:24;;;;;;;3.40;3.20;;;;;;;26.54;42.04;100356.44;10551330;28;20528;-75
2021/06/06 10:45:25;;;;;;;2.70;2.50;;;;;;;27.29;39.58;100344.78;10532301;28;20044;-74
2021/06/06 10:50:46;;;;;;;3.10;2.28;;;;;;;27.91;37.03;100347.72;10550379;28;20075;-74
2021/06/06 10:56:01;;;;;;;2.80;2.00;;;;;;;28.13;37.21;100341.03;10533269;28;20044;-75
2021/06/06 11:01:17;;;;;;;2.50;2.33;;;;;;;28.01;34.28;100337.69;10550861;28;20089;-75
2021/06/06 11:06:31;;;;;;;2.70;2.50;;;;;;;27.80;34.51;100342.53;10533078;28;20051;-75
2021/06/06 11:11:39;;;;;;;8.38;2.20;;;;;;;28.76;34.82;100329.22;10532545;28;20044;-75
2021/06/06 11:16:52;;;;;;;2.42;2.00;;;;;;;28.96;32.84;100325.31;10533613;28;20494;-75
2021/06/06 11:22:13;;;;;;;2.38;2.17;;;;;;;29.13;33.84;100334.34;10550874;28;20087;-77
2021/06/06 11:27:15;;;;;;;1.90;1.70;;;;;;;29.51;32.80;100324.03;10533620;28;20515;-76
2021/06/06 11:32:39;;;;;;;1.73;1.63;;;;;;;28.70;32.40;100319.03;10534830;28;20082;-76
2021/06/06 11:37:53;;;;;;;2.67;1.85;;;;;;;27.83;32.68;100317.91;10555586;28;20072;-76
2021/06/06 11:43:01;;;;;;;2.95;1.65;;;;;;;27.27;34.38;100322.50;10534671;28;20044;-75
2021/06/06 11:48:14;;;;;;;2.55;1.70;;;;;;;27.73;34.16;100300.94;10534497;28;20094;-75
2021/06/06 11:53:26;;;;;;;3.00;1.58;;;;;;;27.85;31.74;100302.41;10536093;28;20048;-75
2021/06/06 11:58:37;;;;;;;2.30;1.58;;;;;;;28.50;32.28;100304.84;10551093;28;20095;-76
2021/06/06 12:03:42;;;;;;;1.85;1.55;;;;;;;28.19;30.98;100299.84;10550625;28;20458;-76
2021/06/06 12:08:54;;;;;;;1.88;1.77;;;;;;;28.96;30.25;100278.47;10532149;28;20101;-76
2021/06/06 12:14:16;;;;;;;1.85;1.55;;;;;;;29.24;31.66;100285.34;10550256;28;20065;-75
2021/06/06 12:19:24;;;;;;;1.73;1.45;;;;;;;28.89;29.90;100280.94;10516157;28;20044;-77
2021/06/06 12:24:27;;;;;;;1.50;1.40;;;;;;;28.80;29.81;100276.50;10531931;28;20144;-76
2021/06/06 12:29:32;;;;;;;1.50;1.40;;;;;;;28.71;29.89;100274.75;10516305;28;20116;-76
2021/06/06 12:34:36;;;;;;;1.90;1.60;;;;;;;28.86;31.11;100275.81;10532949;28;20066;-76
2021/06/06 12:39:42;;;;;;;1.75;1.63;;;;;;;28.98;29.11;100268.31;10552069;28;20071;-78
2021/06/06 12:44:48;;;;;;;2.03;1.77;;;;;;;28.70;30.11;100276.59;10532970;28;20044;-76
2021/06/06 12:49:55;;;;;;;2.67;1.70;;;;;;;29.12;28.79;100273.97;10552051;28;20047;-76
2021/06/06 12:54:56;;;;;;;2.03;1.50;;;;;;;29.22;30.51;100271.16;10551104;28;20047;-76
2021/06/06 13:00:18;;;;;;;1.45;1.35;;;;;;;29.59;28.81;100262.66;10554630;28;20052;-76
2021/06/06 13:05:39;;;;;;;1.38;1.27;;;;;;;29.01;28.31;100270.72;10532616;28;20498;-77
2021/06/06 13:10:51;;;;;;;1.50;1.35;;;;;;;28.95;28.82;100269.44;10550633;28;20089;-78
2021/06/06 13:15:53;;;;;;;1.40;1.30;;;;;;;28.95;28.97;100264.03;10552653;28;20121;-77
2021/06/06 13:20:57;;;;;;;3.00;1.58;;;;;;;28.75;29.75;100270.72;10534585;28;20048;-78
2021/06/06 13:26:07;;;;;;;2.47;1.23;;;;;;;28.61;28.81;100266.75;10532511;28;20048;-76
2021/06/06 13:31:26;;;;;;;1.30;1.20;;;;;;;28.50;27.72;100259.72;10531244;28;20497;-77
2021/06/06 13:36:29;;;;;;;1.25;1.10;;;;;;;28.70;28.88;100265.78;10550916;28;20044;-77
2021/06/06 13:41:31;;;;;;;1.90;1.58;;;;;;;28.82;27.41;100267.22;10533269;28;20044;-76
2021/06/06 13:46:35;;;;;;;1.52;1.40;;;;;;;28.57;27.53;100266.22;10531904;28;20090;-77
2021/06/06 13:51:37;;;;;;;1.60;1.50;;;;;;;28.20;28.58;100255.63;10531916;28;20080;-77
2021/06/06 13:56:40;;;;;;;1.38;1.23;;;;;;;28.46;28.28;100268.31;10553652;28;20051;-77
2021/06/06 14:01:43;;;;;;;1.27;1.17;;;;;;;28.43;26.34;100265.94;10559894;28;20090;-77
2021/06/06 14:06:45;;;;;;;4.13;1.23;;;;;;;28.28;26.76;100269.16;10540869;28;20040;-77
2021/06/06 14:11:52;;;;;;;1.40;1.30;;;;;;;28.29;26.09;100264.59;10558704;28;20071;-76
2021/06/06 14:16:54;;;;;;;1.15;1.10;;;;;;;28.35;26.56;100266.72;10559883;28;20048;-76
2021/06/06 14:21:56;;;;;;;1.52;1.30;;;;;;;28.42;28.70;100267.78;10558648;28;20413;-77
2021/06/06 14:27:00;;;;;;;1.42;1.30;;;;;;;28.65;29.78;100268.97;10542376;28;20051;-76
2021/06/06 14:32:03;;;;;;;2.65;1.33;;;;;;;28.22;28.38;100282.47;10559100;28;20048;-76
2021/06/06 14:37:05;;;;;;;1.40;1.30;;;;;;;27.57;28.31;100275.41;10557787;28;20070;-76
2021/06/06 14:42:08;;;;;;;1.40;1.30;;;;;;;27.23;29.48;100277.91;10574672;22;20047;-68
2021/06/06 14:47:09;;;;;;;1.63;1.40;;;;;;;27.48;30.17;100270.06;10569465;28;20034;-69
2021/06/06 14:52:11;;;;;;;2.03;1.25;;;;;;;28.31;29.74;100273.44;10568517;28;20052;-69
2021/06/06 14:57:13;;;;;;;3.75;1.30;;;;;;;28.79;28.25;100263.97;10586641;28;20040;-69
2021/06/06 15:02:15;;;;;;;1.40;1.30;;;;;;;28.07;29.43;100264.13;10587456;28;20488;-70
2021/06/06 15:07:17;;;;;;;2.40;1.42;;;;;;;28.31;29.92;100258.06;10585426;28;20047;-70
2021/06/06 15:12:19;;;;;;;2.65;1.42;;;;;;;28.46;29.14;100246.69;10586706;28;20378;-69
2021/06/06 15:17:21;;;;;;;1.52;1.40;;;;;;;29.08;28.50;100245.53;10569626;28;20043;-69
2021/06/06 15:22:23;;;;;;;1.33;1.20;;;;;;;28.88;27.73;100244.91;10586851;28;20051;-70
2021/06/06 15:27:25;;;;;;;1.38;1.27;;;;;;;29.20;28.36;100239.81;10587116;28;20093;-68
2021/06/06 15:32:26;;;;;;;1.40;1.25;;;;;;;29.73;26.66;100244.88;10586059;28;20085;-69
2021/06/06 15:37:28;;;;;;;1.15;1.05;;;;;;;29.45;27.41;100243.47;10584904;28;20084;-69
2021/06/06 15:42:30;;;;;;;2.35;1.23;;;;;;;30.27;26.31;100239.00;10585476;28;20043;-68
2021/06/06 15:47:33;;;;;;;1.50;1.40;;;;;;;29.19;27.49;100238.13;10584827;28;20040;-68
2021/06/06 15:52:34;;;;;;;1.88;1.10;;;;;;;29.35;27.50;100239.03;10584930;28;20047;-69
2021/06/06 15:57:36;;;;;;;1.73;1.17;;;;;;;28.71;27.80;100231.47;10584591;28;20040;-69
2021/06/06 16:02:38;;;;;;;1.38;1.20;;;;;;;29.26;26.82;100234.59;10584018;28;20048;-69
2021/06/06 16:07:41;;;;;;;1.73;1.50;;;;;;;28.82;28.53;100232.03;10584258;28;20036;-69
2021/06/06 16:12:43;;;;;;;1.50;1.30;;;;;;;28.41;29.38;100228.25;10583904;28;20058;-68
2021/06/06 16:17:46;;;;;;;1.77;1.55;;;;;;;28.10;29.54;100230.53;10584196;28;20115;-68
2021/06/06 16:22:49;;;;;;;1.88;1.77;;;;;;;27.98;30.98;100229.94;10583389;28;20040;-68
2021/06/06 16:27:51;;;;;;;1.60;1.50;;;;;;;27.17;30.60;100221.81;10583583;28;20040;-68
2021/06/06 16:32:54;;;;;;;1.63;1.50;;;;;;;26.86;30.93;100222.09;10583411;28;20047;-68
2021/06/06 16:37:57;;;;;;;1.52;1.42;;;;;;;26.60;31.36;100218.38;10583698;28;20046;-69
2021/06/06 16:43:00;;;;;;;2.20;1.77;;;;;;;27.03;31.13;100215.06;10583079;28;20039;-69
2021/06/06 16:48:04;;;;;;;2.15;1.70;;;;;;;26.83;32.31;100210.78;10583149;28;20077;-69
2021/06/06 16:53:06;;;;;;;2.50;1.50;;;;;;;26.65;31.30;100207.97;10582888;28;20040;-69
2021/06/06 16:58:11;;;;;;;1.67;1.58;;;;;;;26.51;33.27;100203.06;10565415;28;20046;-68
2021/06/06 17:03:17;;;;;;;1.85;1.50;;;;;;;26.55;31.98;100209.88;10567298;28;20448;-70
2021/06/06 17:08:22;;;;;;;1.92;1.40;;;;;;;26.30;32.61;100219.44;10586377;28;20119;-70
2021/06/06 17:13:27;;;;;;;1.73;1.63;;;;;;;26.24;33.33;100220.84;10565540;28;20055;-70
2021/06/06 17:18:29;;;;;;;2.37;2.17;;;;;;;26.06;33.05;100215.34;10565279;28;20042;-71
2021/06/06 17:23:36;;;;;;;1.73;1.63;;;;;;;25.76;33.15;100218.16;10583593;28;20044;-71
2021/06/06 17:28:45;;;;;;;2.05;1.75;;;;;;;25.55;33.91;100224.56;10582947;28;20118;-70
2021/06/06 17:33:46;;;;;;;2.22;1.70;;;;;;;25.47;33.81;100219.00;10581559;28;20047;-70
2021/06/06 17:38:48;;;;;;;2.58;1.80;;;;;;;25.45;33.44;100223.66;10583098;28;20114;-70
2021/06/06 17:43:53;;;;;;;1.98;1.75;;;;;;;25.21;34.66;100232.13;10582582;28;20039;-70
2021/06/06 17:48:58;;;;;;;1.92;1.60;;;;;;;25.08;35.03;100237.75;10563495;28;20425;-70
2021/06/06 17:54:00;;;;;;;5.50;2.10;;;;;;;24.94;35.46;100231.88;10581841;28;20046;-70
2021/06/06 17:59:02;;;;;;;2.67;2.13;;;;;;;24.94;35.56;100237.25;10581695;28;20489;-70
2021/06/06 18:04:05;;;;;;;2.20;2.00;;;;;;;24.79;36.29;100248.38;10546942;28;20043;-71
2021/06/06 18:09:11;;;;;;;2.67;2.05;;;;;;;24.65;36.96;100243.34;10581534;28;20396;-71
2021/06/06 18:14:12;;;;;;;2.38;2.13;;;;;;;24.55;38.65;100254.06;10582019;28;20054;-71
2021/06/06 18:19:14;;;;;;;3.20;2.20;;;;;;;24.25;40.47;100251.28;10581616;28;20059;-70
2021/06/06 18:24:19;;;;;;;4.63;2.40;;;;;;;23.96;42.18;100257.31;10581479;28;20385;-71
2021/06/06 18:29:21;;;;;;;2.10;2.00;;;;;;;23.74;43.11;100252.03;10581847;28;20385;-70
2021/06/06 18:34:23;;;;;;;2.42;2.22;;;;;;;23.52;43.54;100261.81;10581078;28;20070;-70
2021/06/06 18:39:24;;;;;;;3.90;3.47;;;;;;;23.08;44.34;100270.78;10563192;28;20048;-69
2021/06/06 18:44:32;;;;;;;4.50;4.10;;;;;;;22.82;47.67;100287.09;10586315;28;20040;-70
2021/06/06 18:49:37;;;;;;;6.80;5.32;;;;;;;22.48;51.32;100301.41;10587556;28;20070;-71
2021/06/06 18:54:39;;;;;;;7.03;6.47;;;;;;;22.36;53.92;100309.41;10587350;28;20040;-70
2021/06/06 18:59:41;;;;;;;7.38;6.93;;;;;;;22.29;55.41;100315.34;10586551;28;20044;-70
2021/06/06 19:04:42;;;;;;;10.48;9.77;;;;;;;21.75;58.56;100327.38;10587017;28;20036;-70
2021/06/06 19:09:46;;;;;;;10.25;9.55;;;;;;;21.68;59.17;100328.78;10586632;28;20477;-70
2021/06/06 19:14:54;;;;;;;10.43;9.73;;;;;;;21.61;59.84;100332.88;10586670;28;20043;-70
2021/06/06 19:19:57;;;;;;;11.90;11.10;;;;;;;21.70;60.87;100342.91;10586979;28;20067;-70
2021/06/06 19:24:58;;;;;;;13.68;12.77;;;;;;;21.47;61.87;100346.38;10587214;28;20443;-70
2021/06/06 19:30:00;;;;;;;13.48;12.68;;;;;;;21.24;62.28;100350.69;10568098;28;20515;-71
2021/06/06 19:35:01;;;;;;;15.18;14.27;;;;;;;21.06;64.17;100368.88;10586183;28;20409;-71
2021/06/06 19:40:06;;;;;;;15.43;14.63;;;;;;;20.71;65.12;100369.50;10586267;28;20051;-72
2021/06/06 19:45:09;;;;;;;17.30;16.20;;;;;;;20.88;65.70;100376.34;10568094;28;20069;-71
2021/06/06 19:50:12;;;;;;;17.35;16.38;;;;;;;20.55;66.66;100388.41;10587007;28;20148;-70
2021/06/06 19:55:17;;;;;;;17.85;16.58;;;;;;;20.54;66.90;100386.69;10585056;28;20680;-71
2021/06/06 20:00:20;;;;;;;16.80;15.90;;;;;;;20.35;67.31;100396.84;10585579;28;20031;-71
2021/06/06 20:05:30;;;;;;;20.48;19.25;;;;;;;20.25;68.63;100395.75;10586054;28;20110;-71
2021/06/06 20:10:36;;;;;;;20.00;18.80;;;;;;;20.41;68.33;100399.13;10586080;28;20044;-71
2021/06/06 20:15:40;;;;;;;20.75;19.45;;;;;;;20.22;69.69;100398.63;10586445;28;20043;-71
2021/06/06 20:20:42;;;;;;;20.42;19.33;;;;;;;20.08;70.60;100411.06;10550718;28;20051;-71
2021/06/06 20:25:45;;;;;;;21.08;19.67;;;;;;;20.03;70.99;100415.00;10586100;28;20073;-70
2021/06/06 20:30:49;;;;;;;24.23;22.63;;;;;;;20.02;71.54;100411.47;10584918;28;20046;-73
2021/06/06 20:35:52;;;;;;;24.95;23.42;;;;;;;19.84;72.46;100416.19;10584418;28;20114;-73
2021/06/06 20:40:57;;;;;;;24.35;22.67;;;;;;;19.91;72.55;100416.63;10558369;22;20094;-73
2021/06/06 20:46:01;;;;;;;29.48;26.70;;;;;;;20.22;72.06;100417.31;10549046;28;20184;-73
2021/06/06 20:51:07;;;;;;;26.42;24.90;;;;;;;20.15;72.56;100425.72;10537870;28;20524;-73
2021/06/06 20:56:09;;;;;;;25.50;23.95;;;;;;;20.03;72.62;100431.00;10546640;28;20050;-74
2021/06/06 21:01:11;;;;;;;29.95;27.88;;;;;;;19.77;73.77;100427.34;10526884;28;20047;-73
2021/06/06 21:06:13;;;;;;;30.50;28.77;;;;;;;19.95;73.47;100431.47;10557086;28;20055;-74
2021/06/06 21:11:15;;;;;;;30.25;28.48;;;;;;;19.91;73.52;100430.81;10541085;28;20036;-74
2021/06/06 21:16:17;;;;;;;31.13;29.23;;;;;;;19.98;73.93;100427.78;10527519;28;20071;-74
2021/06/06 21:21:19;;;;;;;35.83;33.22;;;;;;;19.60;75.26;100437.25;10546715;28;20047;-73
2021/06/06 21:26:23;;;;;;;34.65;32.22;;;;;;;19.60;75.34;100436.38;10544942;28;20085;-73
2021/06/06 21:31:35;;;;;;;36.00;32.83;;;;;;;19.88;74.63;100439.03;10528803;28;20044;-73
2021/06/06 21:36:39;;;;;;;37.08;34.10;;;;;;;19.73;75.20;100434.66;10532056;28;20047;-73
2021/06/06 21:41:46;;;;;;;36.90;33.83;;;;;;;19.67;75.02;100435.06;10526731;28;20044;-75
2021/06/06 21:46:50;;;;;;;38.80;35.58;;;;;;;19.63;75.36;100436.22;10509163;28;20527;-73
2021/06/06 21:51:52;;;;;;;35.25;32.55;;;;;;;19.55;75.47;100449.13;10526961;28;20074;-74
2021/06/06 21:56:53;;;;;;;36.75;34.03;;;;;;;19.59;75.19;100440.84;10529223;28;20044;-74
2021/06/06 22:01:55;;;;;;;39.03;35.72;;;;;;;19.51;75.24;100442.28;10544680;28;20435;-73
2021/06/06 22:06:58;;;;;;;41.58;37.70;;;;;;;19.22;76.35;100446.75;10544604;28;20477;-73
2021/06/06 22:12:02;;;;;;;40.13;36.45;;;;;;;19.27;75.83;100450.00;10527769;28;20048;-73
2021/06/06 22:17:04;;;;;;;39.88;36.25;;;;;;;19.24;76.07;100452.84;10551397;28;20066;-74
2021/06/06 22:22:43;;;;;;;38.92;35.30;;;;;;;19.04;76.47;100465.56;10552416;28;20044;-74
2021/06/06 22:28:24;;;;;;;40.78;37.20;;;;;;;19.02;76.19;100461.28;10533239;28;20040;-75
2021/06/06 22:34:03;;;;;;;39.55;35.97;;;;;;;18.84;76.78;100464.06;10532162;28;20515;-74
2021/06/06 22:39:42;;;;;;;38.15;34.65;;;;;;;18.81;76.59;100471.38;10537054;28;20044;-74
2021/06/06 22:45:21;;;;;;;40.10;36.40;;;;;;;18.92;76.59;100470.75;10532010;28;20032;-74
2021/06/06 22:51:00;;;;;;;42.50;38.45;;;;;;;18.66;77.36;100473.13;10550552;28;20048;-74
2021/06/06 22:56:41;;;;;;;41.50;36.15;;;;;;;18.70;76.88;100477.34;10514275;28;20051;-74
2021/06/06 23:02:19;;;;;;;42.47;37.92;;;;;;;18.82;76.93;100475.78;10552704;28;20546;-74
2021/06/06 23:07:58;;;;;;;42.67;38.55;;;;;;;18.66;77.16;100484.63;10548258;28;20040;-74
2021/06/06 23:13:38;;;;;;;38.55;35.28;;;;;;;18.70;76.78;100484.50;10530052;28;20152;-73
2021/06/06 23:18:40;;;;;;;40.42;36.45;;;;;;;18.83;76.75;100483.69;10547495;28;20048;-74
2021/06/06 23:23:41;;;;;;;38.03;34.80;;;;;;;18.86;76.45;100485.31;10549578;28;20038;-73